Time;durP1;ratioP1;P1;durP2;ratioP2;P2;SDS_P1;SDS_P2;PMS_P1;PMS_P2;Temp;Humidity;BMP_temperature;BMP_pressure;BME280_temperature;BME280_humidity;BME280_pressure;Samples;Min_cycle;Max_cycle;Signal;HPM_P1;HPM_P2
2024/01/02 00:00:32;;;;;;;0.95;0.57;;;6.30;99.90;;;;;;5015288;28;20088;-72
2024/01/02 00:02:58;;;;;;;8.10;0.73;;;6.30;99.90;;;;;;5031318;28;20124;-70
2024/01/02 00:05:23;;;;;;;0.93;0.52;;;6.30;99.90;;;;;;5031104;28;20095;-73
2024/01/02 00:07:49;;;;;;;2.45;0.85;;;6.30;99.90;;;;;;5034913;28;20052;-69
2024/01/02 00:10:15;;;;;;;2.17;1.10;;;6.30;99.90;;;;;;5030615;28;20064;-70
2024/01/02 00:12:41;;;;;;;1.55;0.85;;;6.30;99.90;;;;;;5014358;28;20557;-72
2024/01/02 00:15:08;;;;;;;0.70;0.50;;;6.30;99.90;;;;;;5030747;28;20041;-69
2024/01/02 00:17:39;;;;;;;1.15;1.05;;;6.30;99.90;;;;;;5038465;28;20053;-68
2024/01/02 00:20:05;;;;;;;1.02;0.82;;;6.30;99.90;;;;;;5026837;28;20041;-68
2024/01/02 00:22:32;;;;;;;3.05;0.52;;;6.30;99.90;;;;;;5030862;28;20052;-70
2024/01/02 00:24:58;;;;;;;2.25;0.90;;;6.30;99.90;;;;;;5030730;28;20049;-69
2024/01/02 00:27:24;;;;;;;8.00;0.82;;;6.20;99.90;;;;;;5030250;28;20052;-67
2024/01/02 00:29:50;;;;;;;0.75;0.70;;;6.20;99.90;;;;;;5010339;28;20041;-67
2024/01/02 00:32:16;;;;;;;4.22;0.60;;;6.20;99.90;;;;;;5029295;28;20069;-70
2024/01/02 00:34:41;;;;;;;2.95;1.42;;;6.20;99.90;;;;;;5030891;28;20141;-68
2024/01/02 00:37:07;;;;;;;1.25;0.60;;;6.20;99.90;;;;;;5035145;28;20038;-66
2024/01/02 00:39:33;;;;;;;0.68;0.50;;;6.20;99.90;;;;;;5020882;28;20500;-67
2024/01/02 00:41:59;;;;;;;2.85;1.20;;;6.20;99.90;;;;;;5030133;28;20049;-66
2024/01/02 00:44:24;;;;;;;1.02;0.50;;;6.20;99.90;;;;;;5034831;28;20509;-66
2024/01/02 00:46:50;;;;;;;2.80;0.70;;;6.20;99.90;;;;;;5034466;28;20477;-66
2024/01/02 00:49:16;;;;;;;0.30;0.30;;;6.20;99.90;;;;;;5030324;28;20049;-65
2024/01/02 00:51:42;;;;;;;3.28;1.20;;;6.20;99.90;;;;;;5034452;28;20045;-68
2024/01/02 00:54:08;;;;;;;3.35;1.33;;;6.20;99.90;;;;;;5034132;28;20115;-66
2024/01/02 00:56:33;;;;;;;3.47;1.30;;;6.20;99.90;;;;;;5030408;28;20124;-66
2024/01/02 00:58:59;;;;;;;1.15;0.85;;;6.20;99.90;;;;;;5030655;28;20430;-65
2024/01/02 01:01:25;;;;;;;1.73;0.80;;;6.20;99.90;;;;;;5029678;28;20428;-65
2024/01/02 01:03:51;;;;;;;1.10;0.63;;;6.20;99.90;;;;;;5030141;28;20124;-66
2024/01/02 01:06:17;;;;;;;2.72;1.52;;;6.20;99.90;;;;;;5034769;28;20041;-66
2024/01/02 01:08:42;;;;;;;5.15;0.93;;;6.20;99.90;;;;;;5013671;28;20525;-67
2024/01/02 01:11:08;;;;;;;2.03;0.90;;;6.30;99.90;;;;;;5029443;28;20042;-66
2024/01/02 01:13:34;;;;;;;3.30;0.70;;;6.20;99.90;;;;;;5030129;28;20052;-65
2024/01/02 01:16:00;;;;;;;3.17;1.08;;;6.20;99.90;;;;;;5034094;28;20049;-67
2024/01/02 01:18:33;;;;;;;5.43;1.60;;;6.20;99.90;;;;;;5033830;28;20084;-66
2024/01/02 01:20:59;;;;;;;2.83;0.80;;;6.30;99.90;;;;;;5029978;28;20079;-68
2024/01/02 01:23:24;;;;;;;5.38;0.95;;;6.30;99.90;;;;;;5030061;28;20077;-65
2024/01/02 01:25:50;;;;;;;3.00;1.25;;;6.30;99.90;;;;;;5016639;28;20037;-67
2024/01/02 01:28:35;;;;;;;1.02;0.70;;;6.30;99.90;;;;;;5029498;28;20069;-67
2024/01/02 01:31:00;;;;;;;3.50;1.33;;;6.30;99.90;;;;;;5033721;28;20120;-66
2024/01/02 01:33:26;;;;;;;2.10;1.10;;;6.30;99.90;;;;;;5042214;28;20151;-66
2024/01/02 01:35:52;;;;;;;2.78;0.68;;;6.30;99.90;;;;;;5029347;28;20048;-66
2024/01/02 01:38:18;;;;;;;5.10;1.08;;;6.40;99.90;;;;;;5025131;28;20037;-66
2024/01/02 01:40:43;;;;;;;1.38;0.68;;;6.30;99.90;;;;;;5028322;28;20041;-66
2024/01/02 01:43:13;;;;;;;2.80;0.60;;;6.40;99.90;;;;;;5033210;28;20086;-66
2024/01/02 01:45:39;;;;;;;4.00;0.93;;;6.40;99.90;;;;;;5037491;28;20052;-66
2024/01/02 01:48:07;;;;;;;0.65;0.45;;;6.40;99.90;;;;;;5033617;28;20049;-67
2024/01/02 01:50:52;;;;;;;1.52;0.88;;;6.50;99.90;;;;;;5036430;28;20095;-67
2024/01/02 01:53:18;;;;;;;3.13;1.10;;;6.50;99.90;;;;;;5016442;28;20417;-66
2024/01/02 01:55:44;;;;;;;3.72;1.13;;;6.50;99.90;;;;;;5038091;28;20077;-65
2024/01/02 01:58:12;;;;;;;5.68;0.73;;;6.50;99.90;;;;;;5033106;28;20072;-66
2024/01/02 02:00:38;;;;;;;3.40;0.70;;;6.50;99.90;;;;;;5037467;28;20034;-65
2024/01/02 02:03:05;;;;;;;5.38;1.63;;;6.50;99.90;;;;;;5036058;28;20073;-66
2024/01/02 02:05:32;;;;;;;3.33;0.60;;;6.60;99.90;;;;;;5017820;28;20477;-66
2024/01/02 02:08:12;;;;;;;3.95;1.02;;;6.60;99.90;;;;;;5016780;28;20049;-66
2024/01/02 02:10:51;;;;;;;2.92;0.73;;;6.60;99.90;;;;;;5020610;28;20533;-66
2024/01/02 02:13:18;;;;;;;1.05;0.70;;;6.60;99.90;;;;;;5046453;28;20103;-67
2024/01/02 02:15:44;;;;;;;0.80;0.60;;;6.60;99.90;;;;;;5029329;28;20037;-67
2024/01/02 02:18:10;;;;;;;1.95;0.95;;;6.60;99.90;;;;;;5036147;28;20036;-66
2024/01/02 02:20:36;;;;;;;0.50;0.43;;;6.60;99.90;;;;;;5031248;28;20060;-64
2024/01/02 02:23:02;;;;;;;3.50;0.95;;;6.70;99.90;;;;;;5033071;28;20537;-66
2024/01/02 02:25:28;;;;;;;3.45;0.70;;;6.70;99.90;;;;;;5031004;28;20117;-66
2024/01/02 02:27:54;;;;;;;4.28;0.63;;;6.70;99.90;;;;;;5033075;28;20125;-66
2024/01/02 02:30:19;;;;;;;4.47;0.47;;;6.70;99.90;;;;;;5032715;28;20083;-66
2024/01/02 02:32:45;;;;;;;3.83;0.70;;;6.70;99.90;;;;;;5032723;28;20042;-69
2024/01/02 02:35:28;;;;;;;2.17;0.73;;;6.70;99.90;;;;;;5037012;28;20043;-66
2024/01/02 02:37:54;;;;;;;3.10;0.43;;;6.70;99.90;;;;;;5030434;28;20379;-66
2024/01/02 02:40:20;;;;;;;3.65;0.95;;;6.70;99.90;;;;;;5036192;28;20040;-66
2024/01/02 02:42:55;;;;;;;2.08;1.23;;;6.70;99.90;;;;;;5032549;28;20524;-65
2024/01/02 02:45:28;;;;;;;0.60;0.30;;;6.70;99.90;;;;;;5029262;28;20045;-66
2024/01/02 02:47:54;;;;;;;2.72;1.38;;;6.70;99.90;;;;;;5032078;28;20047;-65
2024/01/02 02:50:20;;;;;;;5.05;0.73;;;6.70;99.90;;;;;;5018404;28;20037;-66
2024/01/02 02:52:46;;;;;;;4.95;0.57;;;6.70;99.90;;;;;;5032320;28;20038;-67
2024/01/02 02:55:11;;;;;;;3.35;0.90;;;6.70;99.90;;;;;;5032156;28;20048;-67
2024/01/02 02:57:37;;;;;;;5.13;0.80;;;6.70;99.90;;;;;;5031708;28;20037;-65
2024/01/02 03:00:04;;;;;;;4.32;0.35;;;6.70;99.90;;;;;;5020230;28;20100;-66
2024/01/02 03:02:30;;;;;;;1.40;0.68;;;6.70;99.90;;;;;;5036582;28;20386;-66
2024/01/02 03:04:56;;;;;;;0.63;0.40;;;6.70;99.90;;;;;;5033224;28;20053;-66
2024/01/02 03:07:21;;;;;;;1.85;0.68;;;6.70;99.90;;;;;;5014982;28;20042;-67
2024/01/02 03:09:47;;;;;;;3.67;0.98;;;6.70;99.90;;;;;;5031827;28;20057;-70
2024/01/02 03:12:13;;;;;;;0.47;0.35;;;6.70;99.90;;;;;;5035627;28;20077;-67
2024/01/02 03:14:39;;;;;;;1.48;0.93;;;6.70;99.90;;;;;;5036462;28;20090;-66
2024/01/02 03:17:05;;;;;;;1.40;0.80;;;6.70;99.90;;;;;;5032278;28;20124;-65
2024/01/02 03:19:41;;;;;;;1.20;0.43;;;6.70;99.90;;;;;;5036061;28;20044;-67
2024/01/02 03:22:07;;;;;;;1.20;0.70;;;6.70;99.90;;;;;;5031429;28;20045;-66
2024/01/02 03:24:50;;;;;;;0.60;0.45;;;6.70;99.90;;;;;;5036945;28;20049;-67
2024/01/02 03:27:16;;;;;;;1.17;0.85;;;6.70;99.90;;;;;;5035765;28;20398;-65
2024/01/02 03:29:42;;;;;;;0.88;0.60;;;6.70;99.90;;;;;;5035902;28;20049;-67
2024/01/02 03:32:08;;;;;;;3.35;0.93;;;6.70;99.90;;;;;;5035726;28;20490;-65
2024/01/02 03:34:51;;;;;;;2.25;0.88;;;6.70;99.90;;;;;;5035838;28;20052;-65
2024/01/02 03:37:18;;;;;;;0.50;0.40;;;6.70;99.90;;;;;;5039258;28;20112;-66
2024/01/02 03:39:44;;;;;;;2.55;0.75;;;6.70;99.90;;;;;;5033807;28;20128;-65
2024/01/02 03:42:10;;;;;;;1.67;1.00;;;6.70;99.90;;;;;;5031472;28;20041;-65
2024/01/02 03:44:35;;;;;;;1.40;0.40;;;6.70;99.90;;;;;;5031747;28;20099;-67
2024/01/02 03:47:01;;;;;;;3.55;0.98;;;6.70;99.90;;;;;;5031684;28;20116;-65
2024/01/02 03:49:27;;;;;;;2.38;0.85;;;6.60;99.90;;;;;;5031675;28;20046;-66
2024/01/02 03:51:53;;;;;;;0.60;0.40;;;6.70;99.90;;;;;;5031710;28;20037;-66
2024/01/02 03:54:18;;;;;;;4.95;1.25;;;6.70;99.90;;;;;;5031591;28;20530;-67
2024/01/02 03:56:44;;;;;;;1.20;0.70;;;6.70;99.90;;;;;;5030773;28;20087;-67
2024/01/02 03:59:10;;;;;;;2.03;1.20;;;6.60;99.90;;;;;;5034478;28;20033;-65
2024/01/02 04:01:43;;;;;;;1.30;0.70;;;6.70;99.90;;;;;;5037159;28;20179;-66
2024/01/02 04:04:09;;;;;;;3.83;1.60;;;6.70;99.90;;;;;;5036043;28;20523;-65
2024/01/02 04:06:34;;;;;;;4.07;1.38;;;6.70;99.90;;;;;;5032356;28;20081;-67
2024/01/02 04:09:00;;;;;;;4.28;1.50;;;6.70;99.90;;;;;;5033587;28;20033;-66
2024/01/02 04:11:26;;;;;;;1.67;0.73;;;6.70;99.90;;;;;;5030532;28;20053;-65
2024/01/02 04:13:52;;;;;;;2.67;1.10;;;6.70;99.90;;;;;;5031101;28;20050;-65
2024/01/02 04:16:17;;;;;;;1.58;0.63;;;6.70;99.90;;;;;;5030544;28;20128;-66
2024/01/02 04:18:44;;;;;;;2.83;0.77;;;6.60;99.90;;;;;;5027625;28;20087;-66
2024/01/02 04:21:10;;;;;;;3.08;1.02;;;6.70;99.90;;;;;;5030496;28;20048;-66
2024/01/02 04:23:36;;;;;;;2.85;0.93;;;6.70;99.90;;;;;;5030697;28;20041;-66
2024/01/02 04:26:02;;;;;;;1.02;0.80;;;6.70;99.90;;;;;;5031182;28;20076;-66
2024/01/02 05:33:56;;;;;;;0.25;0.25;;;6.70;99.90;;;;;;4780459;27;8584948;-93
2024/01/02 05:36:29;;;;;;;1.00;0.57;;;6.70;99.90;;;;;;5034470;28;20041;-86
2024/01/02 05:38:54;;;;;;;0.75;0.40;;;6.70;99.90;;;;;;5037744;28;20091;-86
2024/01/02 05:41:20;;;;;;;0.68;0.40;;;6.80;99.90;;;;;;5045284;28;20041;-86
2024/01/02 05:43:46;;;;;;;0.45;0.40;;;6.80;99.90;;;;;;5047006;28;20123;-86
2024/01/02 05:46:12;;;;;;;0.40;0.32;;;6.80;99.90;;;;;;5074741;28;20491;-86
2024/01/02 05:48:37;;;;;;;0.88;0.57;;;6.80;99.90;;;;;;5057315;28;20478;-86
2024/01/02 05:51:04;;;;;;;0.10;0.10;;;6.90;99.90;;;;;;5058062;28;20033;-86
2024/01/02 05:53:30;;;;;;;0.38;0.30;;;6.90;99.90;;;;;;5041984;28;20036;-86
2024/01/02 05:55:56;;;;;;;0.60;0.55;;;7.00;99.90;;;;;;5060199;28;20372;-86
2024/01/02 05:58:21;;;;;;;0.30;0.20;;;7.00;99.90;;;;;;5048764;28;20434;-86
2024/01/02 06:00:47;;;;;;;0.75;0.55;;;7.00;99.90;;;;;;5065430;28;20508;-86
2024/01/02 06:03:13;;;;;;;1.00;0.57;;;7.10;99.90;;;;;;5076641;28;20051;-86
2024/01/02 06:05:39;;;;;;;0.65;0.40;;;7.10;99.90;;;;;;5082380;28;20037;-86
2024/01/02 06:08:05;;;;;;;0.30;0.28;;;7.10;99.90;;;;;;5068470;28;20033;-86
2024/01/02 06:10:30;;;;;;;0.57;0.40;;;7.20;99.90;;;;;;5053202;28;20040;-83
2024/01/02 06:12:56;;;;;;;0.95;0.55;;;7.20;99.90;;;;;;5055201;28;20521;-83
2024/01/02 06:15:22;;;;;;;0.77;0.60;;;7.20;99.90;;;;;;5072244;28;20031;-82
2024/01/02 06:17:48;;;;;;;0.80;0.60;;;7.20;99.90;;;;;;5048819;28;20178;-82
2024/01/02 06:20:14;;;;;;;0.65;0.40;;;7.30;99.90;;;;;;5055105;28;20403;-82
2024/01/02 06:22:40;;;;;;;0.40;0.20;;;7.30;99.90;;;;;;5053501;28;20047;-82
2024/01/02 06:25:09;;;;;;;0.47;0.40;;;7.30;99.90;;;;;;5057602;28;20048;-82
2024/01/02 06:27:36;;;;;;;0.10;0.10;;;7.40;99.90;;;;;;5065752;28;20040;-82
2024/01/02 06:30:03;;;;;;;0.20;0.20;;;7.30;99.90;;;;;;5069745;28;20044;-82
2024/01/02 06:32:42;;;;;;;0.40;0.20;;;7.50;99.90;;;;;;5074182;28;20071;-82
2024/01/02 06:35:15;;;;;;;0.73;0.20;;;7.50;99.90;;;;;;5070673;28;20681;-82
2024/01/02 06:37:40;;;;;;;0.20;0.20;;;7.50;99.90;;;;;;5069962;28;20068;-82
2024/01/02 06:40:08;;;;;;;3.20;0.50;;;7.60;99.90;;;;;;5072622;28;20100;-82
2024/01/02 06:42:35;;;;;;;0.60;0.40;;;7.60;99.90;;;;;;5069650;28;20048;-83
2024/01/02 06:45:00;;;;;;;0.82;0.50;;;7.60;99.90;;;;;;5055738;28;20486;-83
2024/01/02 06:47:27;;;;;;;0.32;0.25;;;7.70;99.90;;;;;;5039987;28;20103;-82
2024/01/02 06:49:52;;;;;;;0.10;0.10;;;7.70;99.90;;;;;;5064026;28;20450;-82
2024/01/02 06:52:18;;;;;;;0.10;0.10;;;7.80;99.90;;;;;;5056408;28;20120;-82
2024/01/02 06:54:45;;;;;;;0.20;0.20;;;7.90;99.90;;;;;;5043188;28;20064;-82
2024/01/02 06:57:10;;;;;;;0.17;0.17;;;7.90;99.90;;;;;;5035801;28;20499;-82
2024/01/02 06:59:37;;;;;;;0.40;0.30;;;8.00;99.90;;;;;;5058885;28;20044;-82
2024/01/02 07:02:03;;;;;;;0.30;0.30;;;8.00;99.90;;;;;;5056195;28;20394;-82
2024/01/02 07:04:29;;;;;;;2.20;0.40;;;8.10;99.90;;;;;;5066141;28;20044;-82
2024/01/02 07:06:54;;;;;;;0.63;0.40;;;8.20;99.90;;;;;;5056204;28;20036;-82
2024/01/02 07:09:20;;;;;;;0.45;0.30;;;8.20;99.90;;;;;;5061262;28;20505;-82
2024/01/02 07:11:46;;;;;;;0.75;0.43;;;8.30;99.90;;;;;;5038948;28;20071;-82
2024/01/02 07:14:12;;;;;;;0.90;0.60;;;8.40;99.90;;;;;;5054521;28;20379;-81
2024/01/02 07:16:38;;;;;;;1.33;0.55;;;8.50;99.90;;;;;;5077679;28;20403;-82
2024/01/02 07:19:03;;;;;;;3.63;0.50;;;8.60;99.90;;;;;;5040058;28;20071;-82
2024/01/02 07:21:29;;;;;;;1.05;0.70;;;8.60;99.90;;;;;;5037565;28;20043;-82
2024/01/02 07:23:55;;;;;;;1.40;0.60;;;8.70;99.90;;;;;;5053234;28;20036;-82
2024/01/02 07:26:21;;;;;;;0.93;0.50;;;8.70;99.90;;;;;;5042502;28;20059;-82
2024/01/02 07:28:46;;;;;;;1.20;0.50;;;8.70;99.90;;;;;;5051100;28;20064;-82
2024/01/02 07:31:12;;;;;;;1.52;0.73;;;8.80;99.90;;;;;;5067214;28;20107;-82
2024/01/02 07:33:45;;;;;;;2.03;1.05;;;8.90;99.90;;;;;;5029258;28;20064;-81
2024/01/02 07:36:10;;;;;;;2.65;1.13;;;8.90;99.90;;;;;;5045502;28;20874;-82
2024/01/02 07:38:36;;;;;;;7.28;1.30;;;9.00;99.90;;;;;;5044369;28;20044;-82
2024/01/02 07:41:02;;;;;;;4.60;0.98;;;9.00;99.90;;;;;;5041309;28;20037;-82
2024/01/02 07:43:30;;;;;;;1.95;1.15;;;9.10;99.90;;;;;;5038589;28;20048;-83
2024/01/02 07:45:57;;;;;;;0.80;0.50;;;9.10;99.90;;;;;;5022530;28;20040;-83
2024/01/02 07:48:23;;;;;;;9.35;2.00;;;9.20;99.90;;;;;;5045369;28;20037;-82
2024/01/02 07:50:48;;;;;;;4.72;2.42;;;9.20;99.90;;;;;;5043187;28;20062;-83
2024/01/02 07:53:19;;;;;;;7.75;3.20;;;9.30;99.90;;;;;;5041882;28;20028;-83
2024/01/02 07:55:47;;;;;;;21.35;4.38;;;9.40;99.90;;;;;;5049585;28;20056;-83
2024/01/02 07:58:12;;;;;;;12.93;3.88;;;9.40;99.90;;;;;;5035928;28;20033;-83
2024/01/02 08:00:38;;;;;;;14.32;5.43;;;9.50;99.90;;;;;;5045202;28;20098;-83
2024/01/02 08:03:04;;;;;;;13.85;5.05;;;9.50;99.90;;;;;;5044667;28;20040;-83
2024/01/02 08:05:30;;;;;;;16.55;7.95;;;9.60;99.90;;;;;;5053388;28;20036;-84
2024/01/02 08:07:55;;;;;;;20.15;10.18;;;9.60;99.90;;;;;;5022509;28;20120;-83
2024/01/02 08:10:21;;;;;;;19.80;10.23;;;9.60;99.90;;;;;;5053541;28;20044;-83
2024/01/02 08:13:00;;;;;;;27.15;11.63;;;9.70;99.90;;;;;;5038845;28;20067;-83
2024/01/02 08:15:26;;;;;;;22.00;9.27;;;9.70;99.90;;;;;;5043483;28;20122;-82
2024/01/02 08:17:52;;;;;;;24.25;10.35;;;9.70;99.90;;;;;;5033686;28;20486;-82
2024/01/02 08:20:21;;;;;;;28.73;13.85;;;9.70;99.90;;;;;;5030178;28;20060;-83
2024/01/02 08:22:46;;;;;;;34.80;16.38;;;9.70;99.90;;;;;;5038179;28;20049;-83
2024/01/02 08:25:12;;;;;;;37.10;15.68;;;9.80;99.90;;;;;;5037801;28;20044;-84
2024/01/02 08:27:39;;;;;;;34.92;16.08;;;9.80;99.90;;;;;;5050447;28;20041;-82
2024/01/02 08:30:05;;;;;;;22.20;11.52;;;9.80;99.90;;;;;;5033523;28;20044;-82
2024/01/02 08:32:31;;;;;;;24.70;12.75;;;9.80;99.90;;;;;;5046807;28;20064;-83
2024/01/02 08:35:10;;;;;;;23.92;13.00;;;9.90;99.90;;;;;;5038240;28;20079;-83
2024/01/02 08:37:35;;;;;;;41.28;15.25;;;9.90;99.90;;;;;;5046011;28;20135;-83
2024/01/02 08:40:01;;;;;;;42.25;17.63;;;9.90;99.90;;;;;;5042376;28;20171;-83
2024/01/02 08:42:27;;;;;;;23.25;11.65;;;9.90;99.90;;;;;;5029184;28;20044;-83
2024/01/02 08:44:52;;;;;;;8.40;5.07;;;10.00;99.90;;;;;;5037056;28;20048;-83
2024/01/02 08:47:18;;;;;;;6.80;2.97;;;9.90;99.90;;;;;;5044299;28;20045;-83
2024/01/02 08:49:45;;;;;;;7.57;1.73;;;10.00;99.90;;;;;;5068847;28;20036;-84
2024/01/02 08:52:11;;;;;;;2.80;0.77;;;9.90;99.90;;;;;;5037623;28;20096;-83
2024/01/02 08:54:37;;;;;;;10.02;1.08;;;9.90;99.90;;;;;;5021365;28;20499;-84
2024/01/02 08:57:03;;;;;;;3.28;0.75;;;10.00;99.90;;;;;;5028886;28;20068;-84
2024/01/02 08:59:29;;;;;;;1.55;0.60;;;10.00;99.90;;;;;;5041928;28;20068;-83
2024/01/02 09:01:55;;;;;;;5.93;1.08;;;10.00;99.90;;;;;;5049845;28;20542;-83
2024/01/02 09:04:23;;;;;;;10.00;1.85;;;10.00;99.90;;;;;;5031291;28;20045;-84
2024/01/02 09:06:49;;;;;;;3.20;0.95;;;10.00;99.90;;;;;;5044538;28;20048;-84
2024/01/02 09:09:15;;;;;;;10.27;2.35;;;10.00;99.90;;;;;;5028589;28;20097;-84
2024/01/02 09:11:41;;;;;;;8.43;1.45;;;10.00;99.90;;;;;;5047622;28;20047;-84
2024/01/02 09:14:07;;;;;;;6.93;2.65;;;10.00;99.90;;;;;;5031133;28;20037;-84
2024/01/02 09:16:33;;;;;;;12.23;4.70;;;10.00;99.90;;;;;;5041890;28;20036;-83
2024/01/02 09:18:59;;;;;;;20.88;7.28;;;10.00;99.90;;;;;;5024788;28;20067;-83
2024/01/02 09:21:25;;;;;;;17.67;8.18;;;10.00;99.90;;;;;;5027498;28;20300;-84
2024/01/02 09:23:51;;;;;;;10.00;4.40;;;10.10;99.90;;;;;;5044676;28;20431;-83
2024/01/02 09:26:23;;;;;;;9.45;3.50;;;10.10;99.90;;;;;;5043069;28;20075;-84
2024/01/02 09:28:49;;;;;;;11.27;1.85;;;10.00;99.90;;;;;;5043610;28;20036;-84
2024/01/02 09:31:15;;;;;;;1.75;1.25;;;10.00;99.90;;;;;;5042554;28;20455;-84
2024/01/02 09:33:51;;;;;;;2.97;1.17;;;10.00;99.90;;;;;;5034340;28;20053;-84
2024/01/02 09:36:17;;;;;;;7.60;1.00;;;10.00;99.90;;;;;;5050123;28;20048;-84
2024/01/02 09:38:43;;;;;;;2.25;0.60;;;10.10;99.90;;;;;;5050967;28;20045;-84
2024/01/02 09:41:32;;;;;;;6.55;1.15;;;10.10;99.90;;;;;;5055002;28;20043;-84
2024/01/02 09:44:16;;;;;;;1.93;0.67;;;10.10;99.90;;;;;;5057068;28;20041;-84
2024/01/02 09:47:03;;;;;;;1.02;0.55;;;10.10;99.90;;;;;;5042193;28;20044;-84
2024/01/02 09:49:50;;;;;;;5.78;0.80;;;10.20;99.90;;;;;;5055690;28;20032;-84
2024/01/02 09:53:08;;;;;;;8.35;1.15;;;10.10;99.90;;;;;;5034295;28;20044;-84
2024/01/02 09:55:50;;;;;;;5.20;0.68;;;10.10;99.90;;;;;;4993455;28;20062;-84
2024/01/02 09:58:25;;;;;;;3.90;1.45;;;10.10;99.90;;;;;;4985897;28;20088;-84
2024/01/02 10:00:53;;;;;;;2.85;0.43;;;10.20;99.90;;;;;;5039136;28;20045;-84
2024/01/02 10:03:47;;;;;;;5.45;0.70;;;10.20;99.90;;;;;;5054070;28;20044;-84
2024/01/02 10:06:37;;;;;;;11.30;1.73;;;10.20;99.90;;;;;;5039592;28;20127;-84
2024/01/02 10:09:31;;;;;;;6.97;0.85;;;10.20;99.90;;;;;;5032040;28;20410;-84
2024/01/02 10:12:19;;;;;;;4.55;0.45;;;10.30;99.90;;;;;;5037129;28;20090;-83
2024/01/02 10:15:00;;;;;;;5.63;0.80;;;10.30;99.90;;;;;;5061150;28;20068;-83
2024/01/02 10:17:55;;;;;;;6.65;1.63;;;10.40;99.90;;;;;;5055993;28;20472;-84
2024/01/02 10:20:35;;;;;;;8.65;0.70;;;10.40;99.90;;;;;;5048278;28;20129;-83
2024/01/02 10:23:20;;;;;;;5.75;1.25;;;10.40;99.90;;;;;;5054661;28;20437;-83
2024/01/02 10:25:53;;;;;;;4.57;0.80;;;10.40;99.90;;;;;;5052277;28;20043;-83
2024/01/02 10:28:24;;;;;;;5.97;1.05;;;10.50;99.90;;;;;;5062613;28;20028;-83
2024/01/02 10:31:15;;;;;;;2.97;0.95;;;10.50;99.90;;;;;;5060891;28;20115;-83
2024/01/02 10:33:53;;;;;;;6.88;0.88;;;10.50;99.90;;;;;;5041326;28;20052;-83
2024/01/02 10:36:40;;;;;;;3.67;1.23;;;10.60;99.90;;;;;;5074219;28;20060;-83
2024/01/02 10:39:26;;;;;;;3.45;0.75;;;10.50;99.90;;;;;;5056470;28;20514;-83
2024/01/02 10:41:54;;;;;;;7.40;0.82;;;10.60;99.90;;;;;;5058132;28;20055;-83
2024/01/02 10:44:41;;;;;;;5.32;0.85;;;10.60;99.90;;;;;;5043002;28;20388;-83
2024/01/02 10:47:16;;;;;;;12.25;1.33;;;10.60;99.90;;;;;;5056128;28;20053;-83
2024/01/02 10:49:51;;;;;;;12.27;1.42;;;10.60;99.90;;;;;;5052737;28;20485;-83
2024/01/02 10:52:24;;;;;;;7.35;0.80;;;10.60;99.90;;;;;;5035157;28;20089;-83
2024/01/02 10:55:29;;;;;;;4.45;1.30;;;10.60;99.90;;;;;;5052372;28;20112;-83
2024/01/02 10:58:17;;;;;;;6.78;2.10;;;10.70;99.90;;;;;;5014803;28;20043;-83
2024/01/02 11:01:14;;;;;;;3.15;0.60;;;10.70;99.90;;;;;;5049332;28;20041;-83
2024/01/02 11:04:05;;;;;;;7.53;1.55;;;10.70;99.90;;;;;;5055541;28;20490;-83
2024/01/02 11:07:04;;;;;;;2.65;1.15;;;10.70;99.90;;;;;;5037279;28;20040;-83
2024/01/02 11:09:55;;;;;;;6.57;1.20;;;10.70;99.90;;;;;;5038882;28;20123;-82
2024/01/02 11:12:23;;;;;;;1.95;0.70;;;10.80;99.90;;;;;;5070680;28;20045;-82
2024/01/02 11:14:51;;;;;;;15.25;1.88;;;10.80;99.90;;;;;;5043422;28;20105;-82
2024/01/02 11:17:18;;;;;;;11.07;1.83;;;10.80;99.90;;;;;;5039208;28;20033;-82
2024/01/02 11:20:06;;;;;;;3.88;0.90;;;10.80;99.90;;;;;;5034440;28;20029;-82
2024/01/02 11:22:50;;;;;;;7.75;1.10;;;10.80;99.90;;;;;;5049506;28;20044;-83
2024/01/02 11:25:21;;;;;;;7.60;0.82;;;10.80;99.90;;;;;;5029172;28;20040;-83
2024/01/02 11:27:50;;;;;;;8.68;1.65;;;10.80;99.90;;;;;;5044507;28;20445;-83
2024/01/02 11:30:17;;;;;;;8.77;1.40;;;10.80;99.90;;;;;;5026094;28;20025;-83
2024/01/02 11:33:23;;;;;;;15.10;1.73;;;10.80;99.90;;;;;;5034176;28;20044;-83
2024/01/02 11:36:05;;;;;;;7.53;1.42;;;10.80;99.90;;;;;;5025255;28;20586;-83
2024/01/02 11:38:45;;;;;;;6.95;0.70;;;10.80;99.90;;;;;;5029082;28;20111;-84
2024/01/02 11:41:52;;;;;;;8.40;1.63;;;10.80;99.90;;;;;;5043231;28;20537;-84
2024/01/02 11:45:00;;;;;;;6.75;1.92;;;10.80;99.90;;;;;;5045983;28;20043;-84
2024/01/02 11:47:34;;;;;;;8.40;1.30;;;10.80;99.90;;;;;;4988308;28;20293;-84
2024/01/02 11:50:03;;;;;;;9.10;0.93;;;10.80;99.90;;;;;;5041040;28;20044;-84
2024/01/02 11:52:35;;;;;;;12.00;2.53;;;10.80;99.90;;;;;;5050494;28;20120;-84
2024/01/02 11:55:12;;;;;;;13.07;1.67;;;10.90;99.90;;;;;;5049257;28;20294;-84
2024/01/02 11:57:52;;;;;;;8.85;1.83;;;10.90;99.90;;;;;;5043211;28;20053;-84
2024/01/02 12:00:22;;;;;;;;;;;10.90;99.90;;;;;;5026779;28;20059;-84
2024/01/02 12:03:01;;;;;;;2.00;1.15;;;10.90;99.90;;;;;;5042818;28;20377;-83
2024/01/02 12:05:38;;;;;;;10.80;1.30;;;10.90;99.90;;;;;;5032442;28;20091;-83
2024/01/02 12:08:09;;;;;;;9.68;1.75;;;10.90;99.90;;;;;;5059847;28;20033;-83
2024/01/02 12:10:41;;;;;;;4.10;1.13;;;10.90;99.90;;;;;;5034005;28;20051;-83
2024/01/02 12:13:25;;;;;;;7.22;1.83;;;10.90;99.90;;;;;;5043181;28;20045;-83
2024/01/02 12:15:55;;;;;;;10.50;1.58;;;10.90;99.90;;;;;;5042244;28;20453;-83
2024/01/02 12:18:23;;;;;;;10.82;1.42;;;10.90;99.90;;;;;;5030464;28;20495;-83
2024/01/02 12:21:01;;;;;;;13.48;2.30;;;10.90;99.90;;;;;;5025896;28;20122;-83
2024/01/02 12:23:31;;;;;;;6.95;1.67;;;10.90;99.90;;;;;;5046221;28;20037;-83
2024/01/02 12:26:05;;;;;;;11.32;2.42;;;10.90;99.90;;;;;;5053120;28;20048;-83
2024/01/02 12:28:33;;;;;;;14.73;1.67;;;10.90;99.90;;;;;;5041221;28;20048;-83
2024/01/02 12:30:58;;;;;;;8.98;1.48;;;10.90;99.90;;;;;;5024498;28;20029;-83
2024/01/02 12:33:35;;;;;;;5.22;2.65;;;10.90;99.90;;;;;;5040949;28;20585;-82
2024/01/02 12:36:12;;;;;;;4.22;1.38;;;10.90;99.90;;;;;;5038042;28;20091;-83
2024/01/02 12:38:46;;;;;;;6.97;1.42;;;10.90;99.90;;;;;;5031193;28;20387;-83
2024/01/02 12:41:22;;;;;;;15.20;3.03;;;10.90;99.90;;;;;;5030429;28;20490;-83
2024/01/02 12:43:59;;;;;;;3.90;1.90;;;10.90;99.90;;;;;;5039737;28;20064;-82
2024/01/02 12:46:28;;;;;;;9.80;1.33;;;10.90;99.90;;;;;;5048512;28;20032;-84
2024/01/02 12:49:10;;;;;;;7.25;2.88;;;10.90;99.90;;;;;;5042377;28;20063;-84
2024/01/02 12:51:38;;;;;;;8.30;1.65;;;10.80;99.90;;;;;;5043194;28;20106;-83
2024/01/02 12:54:05;;;;;;;9.10;1.35;;;10.90;99.90;;;;;;5043699;28;20487;-84
2024/01/02 12:56:34;;;;;;;3.05;2.22;;;10.90;99.90;;;;;;5026579;28;20036;-83
2024/01/02 12:59:03;;;;;;;2.83;0.82;;;10.90;99.90;;;;;;5026102;28;20040;-83
2024/01/02 13:01:29;;;;;;;3.63;1.67;;;10.90;99.90;;;;;;5026959;28;20070;-82
2024/01/02 13:03:55;;;;;;;5.40;1.60;;;10.90;99.90;;;;;;5031966;28;20124;-82
2024/01/02 13:06:22;;;;;;;9.50;1.73;;;10.90;99.90;;;;;;5025922;28;20032;-82
2024/01/02 13:08:51;;;;;;;10.85;1.98;;;10.90;99.90;;;;;;5025804;28;20033;-82
2024/01/02 13:11:40;;;;;;;6.43;1.48;;;10.90;99.90;;;;;;5047936;28;20037;-83
2024/01/02 13:14:23;;;;;;;7.13;1.67;;;10.80;99.90;;;;;;5027003;28;20049;-83
2024/01/02 13:17:09;;;;;;;4.07;1.05;;;10.80;99.90;;;;;;5047955;28;20044;-83
2024/01/02 13:19:37;;;;;;;6.88;1.58;;;10.80;99.90;;;;;;5041246;28;20388;-83
2024/01/02 13:22:02;;;;;;;9.95;1.40;;;10.80;99.90;;;;;;5042185;28;20529;-83
2024/01/02 13:24:49;;;;;;;4.15;1.65;;;10.70;99.90;;;;;;5043209;28;20036;-82
2024/01/02 13:27:23;;;;;;;9.60;2.30;;;10.70;99.90;;;;;;5048425;28;20045;-82
2024/01/02 13:29:49;;;;;;;5.40;1.45;;;10.70;99.90;;;;;;5049693;28;20231;-82
2024/01/02 13:32:47;;;;;;;8.07;1.20;;;10.70;99.90;;;;;;5031329;28;20064;-82
2024/01/02 13:35:25;;;;;;;10.52;1.90;;;10.70;99.90;;;;;;5043635;28;20048;-82
2024/01/02 13:37:59;;;;;;;7.70;1.40;;;10.60;99.90;;;;;;5044258;28;20025;-83
2024/01/02 13:40:32;;;;;;;4.90;1.73;;;10.60;99.90;;;;;;5052958;28;20036;-82
2024/01/02 13:43:13;;;;;;;15.65;2.67;;;10.60;99.90;;;;;;5044134;28;20522;-82
2024/01/02 13:45:42;;;;;;;6.20;1.35;;;10.60;99.90;;;;;;5048412;28;20045;-82
2024/01/02 13:48:15;;;;;;;3.85;1.50;;;10.60;99.90;;;;;;5062071;28;20117;-81
2024/01/02 13:50:42;;;;;;;8.82;2.00;;;10.60;99.90;;;;;;5051074;28;20040;-82
2024/01/02 13:53:09;;;;;;;18.92;1.75;;;10.60;99.90;;;;;;5044316;28;20024;-81
2024/01/02 13:55:37;;;;;;;11.23;2.70;;;10.50;99.90;;;;;;5031890;28;20041;-81
2024/01/02 13:58:23;;;;;;;9.32;1.85;;;10.60;99.90;;;;;;5030171;28;20083;-81
2024/01/02 14:00:50;;;;;;;6.10;2.08;;;10.50;99.90;;;;;;5046454;28;20683;-81
2024/01/02 14:03:18;;;;;;;9.65;2.80;;;10.60;99.90;;;;;;5033865;28;20059;-81
2024/01/02 14:05:56;;;;;;;13.02;2.50;;;10.60;99.90;;;;;;5048777;28;20033;-81
2024/01/02 14:08:47;;;;;;;9.73;2.17;;;10.50;99.90;;;;;;5051597;28;20104;-81
2024/01/02 14:11:13;;;;;;;3.22;1.73;;;10.50;99.90;;;;;;5044860;28;20124;-81
2024/01/02 14:13:42;;;;;;;4.20;1.75;;;10.50;99.90;;;;;;5043078;28;20037;-81